Nancy, France

6:53 AM CET on February 08, 2016 (GMT +0100)
Essey | | Change Station
CLOSE
Current Station
Airport
Location: Nancy,
Elevation: 699 ft
Nearby Weather Stations

Elev 699 ft 48.69 °N, 6.22 °E | Updated 23 minutes ago

Overcast
Overcast
46 °F
Feels Like 39 °F
N
20
Wind Variable Wind from SSW
Gusts 34 mph

Today
High -- | Low -- °F
--% Chance of Precip.
Yesterday
High -- | Low -- °F
Precip. -- in
Pressure 29.62 in
Visibility 6.2 miles
Clouds Few 4100 ft
Mostly Cloudy 6800 ft
Overcast 8600 ft
Windchill 39 °F
Dew Point 37 °F
Humidity 71%
Rainfall 0.00 in
Snow Depth Not available.
7:55 AM 5:43 PM
Waning Crescent, 0% visible
METAR LFSN 080530Z AUTO 20017G30KT 170V240 9999 FEW041 BKN068 OVC086 08/03 Q1003
Pressure 29.62 in
Visibility 6.2 miles
Clouds Few 4100 ft
Mostly Cloudy 6800 ft
Overcast 8600 ft
Windchill 39 °F
Dew Point 37 °F
Humidity 71%
Rainfall 0.00 in
Snow Depth Not available.
7:55 AM 5:43 PM
Waning Crescent, 0% visible
METAR LFSN 080530Z AUTO 20017G30KT 170V240 9999 FEW041 BKN068 OVC086 08/03 Q1003

10-Day Weather Forecast

Almanac

Astronomy

Feb. 08, 2016 Rise Set
Actual Time
Civil Twilight
Nautical Twilight
Astronomical Twilight
Moon
Length of Visible Light
Length of Day
Tomorrow will be .
, % of the Moon is Illuminated

Today's Extremes

Country Highs Country Lows

Community

WunderPhotos

Upload Photos

1,891,390 photos uploaded!

WunderBlog® & News

Nearby

Air Quality

  Air Quality AQ Index Pollutant
Not available.

Snow Depth

Station Depth Elevation

Earthquake Activity

City Distance Mag. Time & Date
Minimum magnitude displayed is 2.5.

Coastal Water Temperatures

Place Temperature

Stations

Nearby Weather Stations

Station Location Temp. Windchill Dew Point Humidity Wind Precip. Elev Updated Type